No se requiere un especial cuidado respecto a la situación meteorológica.   -   No hay avisos

Informes METAR

 

LEZL - Sevilla, Spain
Distancia de la estación: ENE 8km
Actualización: 22/11/2014 16:30
Despejado
Despejado
 Viento de ENE
Viento: ENE 17 km/h
Temperatura: 23°C
Rocío: 11°C
Humedad: 47%
Barómetro: 1005 hPa
Resumen: Despejado
Visibilidad: mayor de 10 km
2014/11/22 15:30 LEZL 221530Z 07009KT 040V110 CAVOK 23/11 Q1005 NOSIG
LEMO - Morón, Spain
Distancia de la estación: SE 43km
Actualización: 22/11/2014 17:00
Despejado
Despejado
 Viento de ESE
Viento: ESE 26 km/h
Temperatura: 24°C
Rocío: 6°C
Humedad: 31%
Barómetro: 1005 hPa
Resumen: Despejado
Visibilidad: mayor de 10 km
2014/11/22 16:00 LEMO 221600Z 12014KT CAVOK 24/06 Q1005 NOSIG
LEJR - Jeréz, Spain
Distancia de la estación: S 71km
Actualización: 22/11/2014 17:00
Despejado
Despejado
 Viento de E
Viento: E 11 km/h
Temperatura: 22°C
Rocío: 11°C
Humedad: 50%
Barómetro: 1004 hPa
Resumen: Despejado
Visibilidad: mayor de 10 km
2014/11/22 16:00 LEJR 221600Z 09006KT CAVOK 22/11 Q1004
 
LERT - Rota, Spain
Distancia de la estación: SSO 89km
Actualización: 22/11/2014 17:00
Despejado
Despejado
 Viento de E
Viento: E 22 km/h
Temperatura: 23°C
Rocío: 10°C
Humedad: 44%
Barómetro: 1004 hPa
Resumen: Despejado
Visibilidad: mayor de 10 km
2014/11/22 16:00 LERT 221600Z 09012KT CAVOK 23/10 Q1004 NOSIG
LEMG - Málaga, Spain
Distancia de la estación: ESE 157km
Actualización: 22/11/2014 17:00
Despejado
Despejado
 Viento de variable
Viento: variable 4 km/h
Temperatura: 19°C
Rocío: 13°C
Humedad: 68%
Barómetro: 1007 hPa
Resumen: Despejado
Visibilidad: mayor de 10 km
2014/11/22 16:00 LEMG 221600Z VRB02KT CAVOK 19/13 Q1007 NOSIG
LEBA - Córdoba, Spain
Distancia de la estación: ENE 115km
Actualización: 22/11/2014 17:00
Despejado
Despejado
 Viento de variable
Viento: variable 4 km/h
Temperatura: 21°C
Rocío: 13°C
Humedad: 60%
Barómetro: 1007 hPa
Resumen: Despejado
Visibilidad: mayor de 10 km
2014/11/22 16:00 LEBA 221600Z VRB02KT CAVOK 21/13 Q1007
 
LEGR - Granada, Spain
Distancia de la estación: E 198km
Actualización: 22/11/2014 17:00
Parcialmente nuboso
Parcialmente nuboso
 Viento de S
Viento: S 26 km/h
Temperatura: 24°C
Rocío: 2°C
Humedad: 24%
Barómetro: 1008 hPa
Nubes: Parcialmente nuboso
Visibilidad: 10 km
Detalles de las nubes: Parcialmente nuboso 762 m
2014/11/22 16:00 LEGR 221600Z 17014KT 140V200 9999 SCT025 24/02 Q1008
LEAM - Almería, Spain
Distancia de la estación: E 326km
Actualización: 22/11/2014 17:00
Despejado
Despejado
 Viento de NE
Viento: NE 24 km/h
Temperatura: 23°C
Rocío: 12°C
Humedad: 50%
Barómetro: 1011 hPa
Resumen: Despejado
Visibilidad: mayor de 10 km
2014/11/22 16:00 LEAM 221600Z 05013KT CAVOK 23/12 Q1011
LEMD - Madrid/Barajas, Spain
Distancia de la estación: NNE 402km
Actualización: 22/11/2014 17:00
Despejado
Despejado
 Viento de variable
Viento: variable 4 km/h
Temperatura: 17°C
Rocío: 11°C
Humedad: 68%
Barómetro: 1013 hPa
Resumen: Despejado
Visibilidad: mayor de 10 km
2014/11/22 16:00 LEMD 221600Z VRB02KT CAVOK 17/11 Q1013 NOSIG
 
LEVD - Valladolid, Spain
Distancia de la estación: N 492km
Actualización: 22/11/2014 17:00
Despejado
Despejado
 Viento de NE
Viento: NE 6 km/h
Temperatura: 17°C
Rocío: 13°C
Humedad: 77%
Barómetro: 1012 hPa
Resumen: Despejado
Visibilidad: mayor de 10 km
2014/11/22 16:00 LEVD 221600Z 05003KT CAVOK 17/13 Q1012
LEBL - Barcelona, Spain
Distancia de la estación: NE 816km
Actualización: 22/11/2014 17:00
Poco nuboso
Poco nuboso
 Viento de NE
Viento: NE 9 km/h
Temperatura: 19°C
Rocío: 17°C
Humedad: 88%
Barómetro: 1017 hPa
Nubes: Poco nuboso
Visibilidad: 9 km
Detalles de las nubes: Poco nuboso 457 m
2014/11/22 16:00 LEBL 221600Z 04005KT 360V060 9000 FEW015 19/17 Q1017 NOSIG
LEVC - Valencia, Spain
Distancia de la estación: ENE 535km
Actualización: 22/11/2014 17:00
Cubierto
Cubierto
 Viento de E
Viento: E 9 km/h
Temperatura: 18°C
Rocío: 15°C
Humedad: 83%
Barómetro: 1016 hPa
Nubes: Cubierto
Visibilidad: 10 km
Detalles de las nubes: Cubierto 914 m
2014/11/22 16:00 LEVC 221600Z 08005KT 9999 OVC030 18/15 Q1016 NOSIG